createdAt,value
2019-01-17T00:02:17.977Z,6.80
2019-01-17T00:05:06.196Z,6.80
2019-01-17T00:07:39.207Z,6.80
2019-01-17T00:10:25.478Z,6.80
2019-01-17T00:13:01.572Z,6.80
2019-01-17T00:15:40.254Z,6.90
2019-01-17T00:18:10.406Z,6.90
2019-01-17T00:20:47.170Z,6.80
2019-01-17T00:23:26.040Z,6.80
2019-01-17T00:25:58.828Z,6.80
2019-01-17T00:28:28.978Z,6.90
2019-01-17T00:30:59.154Z,6.90
2019-01-17T00:33:29.196Z,6.90
2019-01-17T00:36:15.136Z,6.80
2019-01-17T00:38:50.992Z,6.80
2019-01-17T00:41:38.911Z,6.80
2019-01-17T00:44:27.259Z,6.70
2019-01-17T00:47:09.473Z,6.70
2019-01-17T00:49:39.568Z,6.60
2019-01-17T00:52:25.784Z,6.60
2019-01-17T00:55:01.658Z,6.50
2019-01-17T00:57:43.617Z,6.50
2019-01-17T01:00:31.473Z,6.50
2019-01-17T01:03:13.277Z,6.50
2019-01-17T01:05:58.209Z,6.50
2019-01-17T01:08:44.204Z,6.50
2019-01-17T01:11:17.066Z,6.50
2019-01-17T01:13:47.124Z,6.50
2019-01-17T01:16:33.277Z,6.50
2019-01-17T01:19:12.364Z,6.60
2019-01-17T01:21:45.944Z,6.60
2019-01-17T01:24:18.960Z,6.50
2019-01-17T01:26:52.058Z,6.60
2019-01-17T01:29:28.047Z,6.60
2019-01-17T01:32:14.153Z,6.60
2019-01-17T01:34:44.232Z,6.60
2019-01-17T01:37:26.042Z,6.60
2019-01-17T01:40:05.147Z,6.60
2019-01-17T01:42:35.192Z,6.60
2019-01-17T01:45:22.395Z,6.60
2019-01-17T01:48:04.548Z,6.60
2019-01-17T01:50:52.404Z,6.60
2019-01-17T01:53:20.816Z,6.60
2019-01-17T01:55:49.324Z,6.60
2019-01-17T01:58:17.805Z,6.60
2019-01-17T02:00:46.301Z,6.60
2019-01-17T02:03:14.727Z,6.50
2019-01-17T02:05:43.189Z,6.50
2019-01-17T02:08:13.024Z,6.40
2019-01-17T02:10:41.469Z,6.40
2019-01-17T02:13:09.959Z,6.50
2019-01-17T02:15:38.408Z,6.40
2019-01-17T02:18:06.907Z,6.40
2019-01-17T02:20:35.327Z,6.40
2019-01-17T02:23:03.842Z,6.30
2019-01-17T02:25:32.309Z,6.30
2019-01-17T02:28:00.809Z,6.30
2019-01-17T02:30:29.216Z,6.30
2019-01-17T02:32:57.661Z,6.30
2019-01-17T02:35:26.145Z,6.30
2019-01-17T02:37:54.680Z,6.30
2019-01-17T02:40:23.100Z,6.30
2019-01-17T02:42:51.549Z,6.30
2019-01-17T02:45:20.051Z,6.20
2019-01-17T02:47:48.491Z,6.30
2019-01-17T02:50:16.924Z,6.30
2019-01-17T02:52:45.441Z,6.20
2019-01-17T02:55:14.741Z,6.20
2019-01-17T02:57:43.189Z,6.20
2019-01-17T03:00:14.697Z,6.30
2019-01-17T03:02:43.574Z,6.20
2019-01-17T03:05:12.239Z,6.30
2019-01-17T03:07:40.667Z,6.30
2019-01-17T03:10:12.169Z,6.30
2019-01-17T03:12:40.586Z,6.30
2019-01-17T03:15:10.089Z,6.30
2019-01-17T03:17:38.520Z,6.30
2019-01-17T03:20:10.285Z,6.20
2019-01-17T03:22:38.694Z,6.30
2019-01-17T03:25:09.174Z,6.20
2019-01-17T03:27:37.644Z,6.20
2019-01-17T03:30:12.008Z,6.20
2019-01-17T03:32:40.415Z,6.20
2019-01-17T03:35:09.045Z,6.20
2019-01-17T03:37:37.552Z,6.20
2019-01-17T03:40:12.020Z,6.20
2019-01-17T03:42:40.420Z,6.20
2019-01-17T03:45:11.002Z,6.20
2019-01-17T03:47:39.441Z,6.20
2019-01-17T03:50:12.893Z,6.20
2019-01-17T03:52:41.657Z,6.10
2019-01-17T03:55:12.886Z,6.20
2019-01-17T03:57:41.460Z,6.20
2019-01-17T04:00:12.972Z,6.20
2019-01-17T04:02:41.422Z,6.10
2019-01-17T04:05:09.902Z,6.10
2019-01-17T04:07:38.422Z,6.10
2019-01-17T04:10:10.095Z,6.10
2019-01-17T04:12:38.566Z,6.10
2019-01-17T04:15:08.770Z,6.10
2019-01-17T04:17:37.178Z,6.10
2019-01-17T04:20:08.623Z,6.20
2019-01-17T04:22:37.124Z,6.20
2019-01-17T04:25:07.547Z,6.20
2019-01-17T04:27:36.056Z,6.10
2019-01-17T04:30:10.618Z,6.10
2019-01-17T04:32:39.126Z,6.10
2019-01-17T04:35:07.611Z,6.20
2019-01-17T04:37:36.040Z,6.20
2019-01-17T04:40:07.509Z,6.10
2019-01-17T04:42:35.950Z,6.10
2019-01-17T04:45:05.595Z,6.00
2019-01-17T04:47:34.029Z,6.00
2019-01-17T04:50:02.468Z,6.00
2019-01-17T04:52:30.962Z,6.00
2019-01-17T04:55:05.044Z,6.00
2019-01-17T04:57:29.704Z,6.00
2019-01-17T04:59:58.096Z,6.00
2019-01-17T05:02:26.576Z,6.00
2019-01-17T05:04:55.006Z,6.00
2019-01-17T05:07:23.418Z,6.00
2019-01-17T05:09:51.905Z,6.00
2019-01-17T05:12:20.321Z,6.00
2019-01-17T05:14:48.812Z,6.00
2019-01-17T05:17:17.382Z,6.10
2019-01-17T05:19:45.810Z,6.10
2019-01-17T05:22:14.240Z,6.10
2019-01-17T05:24:42.747Z,6.10
2019-01-17T05:27:11.144Z,6.10
2019-01-17T05:29:39.592Z,6.10
2019-01-17T05:32:08.023Z,6.10
2019-01-17T05:34:39.627Z,6.10
2019-01-17T05:37:06.587Z,6.10
2019-01-17T05:39:35.050Z,6.00
2019-01-17T05:42:03.541Z,6.00
2019-01-17T05:44:33.363Z,6.00
2019-01-17T05:47:01.792Z,6.00
2019-01-17T05:49:30.232Z,6.00
2019-01-17T05:51:58.664Z,6.00
2019-01-17T05:54:27.088Z,6.00
2019-01-17T05:56:55.537Z,6.10
2019-01-17T05:59:23.954Z,6.00
2019-01-17T06:01:52.385Z,6.00
2019-01-17T06:04:20.819Z,6.00
2019-01-17T06:06:49.257Z,6.00
2019-01-17T06:09:17.705Z,6.00
2019-01-17T06:11:46.123Z,6.00
2019-01-17T06:14:14.551Z,6.00
2019-01-17T06:16:43.161Z,6.00
2019-01-17T06:19:11.595Z,6.00
2019-01-17T06:21:40.043Z,6.00
2019-01-17T06:24:08.524Z,6.10
2019-01-17T06:26:37.042Z,6.10
2019-01-17T06:29:05.555Z,6.10
2019-01-17T06:31:33.983Z,6.00
2019-01-17T06:34:02.440Z,6.00
2019-01-17T06:36:32.829Z,6.00
2019-01-17T06:39:01.326Z,5.90
2019-01-17T06:41:30.098Z,5.90
2019-01-17T06:44:02.387Z,5.90
2019-01-17T06:46:35.800Z,5.90
2019-01-17T06:49:05.793Z,5.80
2019-01-17T06:51:34.261Z,5.80
2019-01-17T06:54:04.335Z,5.70
2019-01-17T06:56:36.832Z,5.70
2019-01-17T06:59:06.564Z,5.60
2019-01-17T07:01:35.017Z,5.50
2019-01-17T07:04:05.464Z,5.50
2019-01-17T07:06:38.043Z,5.50
2019-01-17T07:09:11.924Z,5.60
2019-01-17T07:11:45.169Z,5.60
2019-01-17T07:14:12.959Z,5.70
2019-01-17T07:16:41.400Z,5.80
2019-01-17T07:19:13.924Z,5.90
2019-01-17T07:21:46.742Z,5.90
2019-01-17T07:24:20.524Z,5.90
2019-01-17T07:26:50.052Z,6.00
2019-01-17T07:29:18.677Z,6.00
2019-01-17T07:31:49.000Z,6.10
2019-01-17T07:34:21.600Z,6.00
2019-01-17T07:36:54.912Z,5.90
2019-01-17T07:39:26.815Z,5.70
2019-01-17T07:41:54.044Z,5.60
2019-01-17T07:44:24.000Z,5.50
2019-01-17T07:46:56.600Z,5.30
2019-01-17T07:49:28.874Z,5.30
2019-01-17T07:51:57.371Z,5.20
2019-01-17T07:54:25.776Z,5.10
2019-01-17T07:56:57.956Z,5.10
2019-01-17T07:59:31.284Z,5.10
2019-01-17T08:02:04.644Z,5.10
2019-01-17T08:04:33.380Z,5.10
2019-01-17T08:07:02.206Z,5.10
2019-01-17T08:09:33.066Z,5.20
2019-01-17T08:12:05.404Z,5.20
2019-01-17T08:14:36.696Z,5.20
2019-01-17T08:17:04.070Z,5.20
2019-01-17T08:19:34.115Z,5.20
2019-01-17T08:22:06.172Z,5.20
2019-01-17T08:24:38.948Z,5.30
2019-01-17T08:27:04.918Z,5.30
2019-01-17T08:29:36.696Z,5.30
2019-01-17T08:32:07.858Z,5.30
2019-01-17T08:34:38.784Z,5.30
2019-01-17T08:37:08.340Z,5.50
2019-01-17T08:39:36.770Z,5.50
2019-01-17T08:42:10.735Z,5.60
2019-01-17T08:44:43.808Z,5.80
2019-01-17T08:47:16.257Z,6.00
2019-01-17T08:49:49.800Z,6.30
2019-01-17T08:52:18.856Z,6.40
2019-01-17T08:54:47.963Z,6.50
2019-01-17T08:57:18.161Z,6.40
2019-01-17T08:59:48.364Z,6.50
2019-01-17T09:02:17.186Z,6.60
2019-01-17T09:04:45.696Z,6.50
2019-01-17T09:07:17.964Z,6.40
2019-01-17T09:09:51.382Z,6.50
2019-01-17T09:12:28.557Z,6.70
2019-01-17T09:14:50.052Z,6.70
2019-01-17T09:17:20.984Z,6.80
2019-01-17T09:19:52.962Z,6.80
2019-01-17T09:22:22.882Z,6.80
2019-01-17T09:24:51.742Z,6.80
2019-01-17T09:27:20.728Z,6.90
2019-01-17T09:29:52.849Z,7.00
2019-01-17T09:32:22.717Z,7.20
2019-01-17T09:34:51.732Z,7.30
2019-01-17T09:37:20.926Z,7.20
2019-01-17T09:39:53.819Z,7.30
2019-01-17T09:42:26.880Z,7.30
2019-01-17T09:44:55.388Z,7.40
2019-01-17T09:47:23.823Z,7.40
2019-01-17T09:49:59.404Z,7.40
2019-01-17T09:52:29.836Z,7.50
2019-01-17T09:55:02.685Z,7.50
2019-01-17T09:57:32.286Z,7.50
2019-01-17T10:00:00.780Z,7.50
2019-01-17T10:02:31.140Z,7.50
2019-01-17T10:05:03.837Z,7.70
2019-01-17T10:07:36.939Z,7.80
2019-01-17T10:10:14.133Z,8.00
2019-01-17T10:12:44.877Z,8.10
2019-01-17T10:15:20.204Z,8.20
2019-01-17T10:18:01.500Z,8.10
2019-01-17T10:21:01.736Z,7.90
2019-01-17T10:23:54.332Z,7.80
2019-01-17T10:26:40.754Z,7.80
2019-01-17T10:29:33.333Z,7.80
2019-01-17T10:32:15.679Z,8.00
2019-01-17T10:34:53.358Z,8.00
2019-01-17T10:37:39.993Z,8.00
2019-01-17T10:40:35.588Z,7.90
2019-01-17T10:43:30.396Z,7.90
2019-01-17T10:46:09.521Z,7.80
2019-01-17T10:48:54.470Z,7.90
2019-01-17T10:51:31.804Z,7.90
2019-01-17T10:54:22.306Z,7.90
2019-01-17T10:56:57.192Z,7.90
2019-01-17T10:59:45.328Z,7.90
2019-01-17T11:02:34.806Z,8.00
2019-01-17T11:05:23.764Z,8.10
2019-01-17T11:08:13.708Z,8.20
2019-01-17T11:11:03.716Z,8.30
2019-01-17T11:13:43.762Z,8.10
2019-01-17T11:16:38.980Z,8.00
2019-01-17T11:19:31.746Z,8.00
2019-01-17T11:22:12.253Z,7.90
2019-01-17T11:25:02.421Z,8.00
2019-01-17T11:27:43.684Z,7.90
2019-01-17T11:30:30.918Z,7.80
2019-01-17T11:33:07.521Z,7.70
2019-01-17T11:35:44.026Z,7.40
2019-01-17T11:38:37.923Z,7.30
2019-01-17T11:41:20.026Z,7.20
2019-01-17T11:43:57.168Z,7.10
2019-01-17T11:46:44.214Z,7.10
2019-01-17T11:49:33.544Z,7.10
2019-01-17T11:52:26.097Z,7.00
2019-01-17T11:55:11.296Z,6.80
2019-01-17T11:57:46.392Z,6.70
2019-01-17T12:00:27.580Z,6.80
2019-01-17T12:03:12.154Z,6.80
2019-01-17T12:05:43.640Z,6.90
2019-01-17T12:08:15.034Z,7.00
2019-01-17T12:10:43.484Z,6.90
2019-01-17T12:13:17.391Z,6.80
2019-01-17T12:15:46.621Z,6.70
2019-01-17T12:18:20.666Z,6.60
2019-01-17T12:20:52.800Z,6.50
2019-01-17T12:23:22.321Z,6.50
2019-01-17T12:25:50.796Z,6.40
2019-01-17T12:28:22.013Z,6.30
2019-01-17T12:30:54.502Z,6.20
2019-01-17T12:33:24.922Z,6.20
2019-01-17T12:35:53.398Z,6.10
2019-01-17T12:38:22.204Z,5.90
2019-01-17T12:40:53.986Z,5.80
2019-01-17T12:43:22.408Z,5.80
2019-01-17T12:45:50.882Z,5.70
2019-01-17T12:48:22.187Z,5.60
2019-01-17T12:50:54.830Z,5.60
2019-01-17T12:53:31.990Z,6.10
2019-01-17T12:56:05.195Z,6.80
2019-01-17T12:58:37.591Z,7.20
2019-01-17T13:01:07.032Z,6.90
2019-01-17T13:03:35.488Z,7.40
2019-01-17T13:06:06.736Z,7.00
2019-01-17T13:08:39.132Z,6.70
2019-01-17T13:11:11.720Z,6.50
2019-01-17T13:13:41.874Z,6.60
2019-01-17T13:16:10.284Z,6.70
2019-01-17T13:18:40.402Z,6.80
2019-01-17T13:21:11.032Z,6.80
2019-01-17T13:23:39.843Z,6.60
2019-01-17T13:26:09.161Z,7.00
2019-01-17T13:28:42.348Z,7.10
2019-01-17T13:31:14.176Z,7.30
2019-01-17T13:33:46.243Z,6.90
2019-01-17T13:36:15.051Z,7.30
2019-01-17T13:38:43.602Z,7.20
2019-01-17T13:41:16.572Z,6.50
2019-01-17T13:43:49.524Z,6.30
2019-01-17T13:46:25.592Z,6.10
2019-01-17T13:48:57.270Z,5.90
2019-01-17T13:51:31.803Z,5.80
2019-01-17T13:54:04.702Z,5.80
2019-01-17T13:56:37.307Z,5.70
2019-01-17T13:59:05.872Z,5.70
2019-01-17T14:01:34.306Z,5.70
2019-01-17T14:04:07.206Z,5.70
2019-01-17T14:06:40.314Z,5.60
2019-01-17T14:09:13.165Z,5.50
2019-01-17T14:11:48.032Z,5.50
2019-01-17T14:14:22.244Z,5.60
2019-01-17T14:16:54.570Z,5.60
2019-01-17T14:19:23.067Z,5.60
2019-01-17T14:21:51.710Z,5.70
2019-01-17T14:24:23.092Z,5.70
2019-01-17T14:26:55.400Z,5.70
2019-01-17T14:29:23.967Z,5.70
2019-01-17T14:31:52.447Z,5.60
2019-01-17T14:34:23.495Z,5.60
2019-01-17T14:36:54.053Z,5.60
2019-01-17T14:39:22.545Z,5.60
2019-01-17T14:41:50.964Z,5.60
2019-01-17T14:44:23.691Z,5.70
2019-01-17T14:46:53.699Z,5.70
2019-01-17T14:49:22.510Z,5.70
2019-01-17T14:51:51.543Z,5.60
2019-01-17T14:54:23.814Z,5.70
2019-01-17T14:56:52.966Z,5.60
2019-01-17T14:59:22.850Z,5.70
2019-01-17T15:01:52.557Z,5.60
2019-01-17T15:04:25.555Z,5.60
2019-01-17T15:06:58.867Z,5.50
2019-01-17T15:09:27.333Z,5.50
2019-01-17T15:11:55.793Z,5.50
2019-01-17T15:14:24.332Z,5.60
2019-01-17T15:16:52.758Z,5.50
2019-01-17T15:19:21.257Z,5.50
2019-01-17T15:21:49.701Z,5.50
2019-01-17T15:24:18.169Z,5.50
2019-01-17T15:26:46.779Z,5.40
2019-01-17T15:29:15.232Z,5.30
2019-01-17T15:31:43.658Z,5.10
2019-01-17T15:34:12.114Z,5.00
2019-01-17T15:36:40.687Z,4.90
2019-01-17T15:39:09.630Z,4.80
2019-01-17T15:41:39.615Z,4.80
2019-01-17T15:44:08.070Z,5.00
2019-01-17T15:46:36.487Z,5.10
2019-01-17T15:49:05.104Z,4.80
2019-01-17T15:51:34.345Z,4.60
2019-01-17T15:54:02.811Z,4.50
2019-01-17T15:56:31.255Z,4.50
2019-01-17T15:58:59.705Z,4.40
2019-01-17T16:01:28.146Z,4.40
2019-01-17T16:03:56.628Z,4.50
2019-01-17T16:06:25.148Z,4.30
2019-01-17T16:08:53.597Z,4.20
2019-01-17T16:11:22.106Z,4.20
2019-01-17T16:13:50.576Z,4.30
2019-01-17T16:16:18.965Z,4.20
2019-01-17T16:18:47.380Z,4.40
2019-01-17T16:21:15.824Z,4.40
2019-01-17T16:23:46.392Z,4.30
2019-01-17T16:26:18.244Z,4.30
2019-01-17T16:28:51.239Z,4.20
2019-01-17T16:31:28.018Z,4.20
2019-01-17T16:34:04.329Z,4.20
2019-01-17T16:36:32.801Z,4.20
2019-01-17T16:39:01.204Z,4.30
2019-01-17T16:41:29.660Z,4.50
2019-01-17T16:43:58.133Z,4.40
2019-01-17T16:46:26.660Z,4.30
2019-01-17T16:48:55.134Z,4.40
2019-01-17T16:51:23.560Z,4.30
2019-01-17T16:53:52.053Z,4.20
2019-01-17T16:56:20.538Z,4.20
2019-01-17T16:58:49.023Z,4.10
2019-01-17T17:01:17.454Z,4.00
2019-01-17T17:03:45.876Z,4.00
2019-01-17T17:06:14.316Z,4.00
2019-01-17T17:08:42.726Z,3.90
2019-01-17T17:11:11.200Z,3.90
2019-01-17T17:13:39.613Z,3.90
2019-01-17T17:16:08.200Z,3.80
2019-01-17T17:18:37.188Z,3.80
2019-01-17T17:21:05.699Z,3.90
2019-01-17T17:23:34.106Z,3.90
2019-01-17T17:26:02.550Z,3.80
2019-01-17T17:28:30.993Z,3.80
2019-01-17T17:30:59.395Z,3.70
2019-01-17T17:33:27.875Z,4.20
2019-01-17T17:35:56.333Z,4.00
2019-01-17T17:38:24.773Z,3.80
2019-01-17T17:40:53.345Z,3.90
2019-01-17T17:43:21.784Z,3.80
2019-01-17T17:45:50.192Z,3.80
2019-01-17T17:48:18.711Z,3.80
2019-01-17T17:50:47.154Z,3.80
2019-01-17T17:53:15.537Z,4.00
2019-01-17T17:55:44.039Z,4.10
2019-01-17T17:58:12.457Z,4.10
2019-01-17T18:00:42.535Z,4.30
2019-01-17T18:03:11.054Z,4.20
2019-01-17T18:05:39.614Z,4.00
2019-01-17T18:08:08.682Z,4.10
2019-01-17T18:10:40.231Z,4.00
2019-01-17T18:13:08.837Z,4.00
2019-01-17T18:15:37.427Z,4.10
2019-01-17T18:18:06.629Z,4.00
2019-01-17T18:20:35.147Z,4.10
2019-01-17T18:23:05.391Z,4.30
2019-01-17T18:25:33.919Z,4.20
2019-01-17T18:28:08.618Z,4.10
2019-01-17T18:30:32.572Z,4.20
2019-01-17T18:33:01.101Z,4.20
2019-01-17T18:35:29.565Z,4.00
2019-01-17T18:37:58.009Z,4.10
2019-01-17T18:40:26.525Z,4.30
2019-01-17T18:42:54.945Z,4.10
2019-01-17T18:45:25.623Z,4.10
2019-01-17T18:47:54.289Z,4.10
2019-01-17T18:50:31.579Z,4.20
2019-01-17T18:53:00.019Z,4.10
2019-01-17T18:55:28.502Z,4.10
2019-01-17T18:57:56.990Z,4.10
2019-01-17T19:00:28.537Z,4.10
2019-01-17T19:02:57.464Z,4.00
2019-01-17T19:05:26.153Z,4.10
2019-01-17T19:07:54.736Z,4.00
2019-01-17T19:10:23.480Z,4.00
2019-01-17T19:12:52.116Z,3.90
2019-01-17T19:15:25.673Z,3.90
2019-01-17T19:17:54.164Z,3.80
2019-01-17T19:20:22.826Z,3.60
2019-01-17T19:22:51.232Z,3.50
2019-01-17T19:25:19.822Z,3.60
2019-01-17T19:27:48.304Z,3.50
2019-01-17T19:30:19.786Z,3.50
2019-01-17T19:32:48.314Z,3.50
2019-01-17T19:35:17.023Z,3.50
2019-01-17T19:37:45.607Z,3.50
2019-01-17T19:40:18.903Z,3.50
2019-01-17T19:42:47.396Z,3.50
2019-01-17T19:45:16.529Z,3.70
2019-01-17T19:47:45.146Z,3.70
2019-01-17T19:50:28.344Z,3.60
2019-01-17T19:52:57.011Z,3.50
2019-01-17T19:55:25.533Z,3.50
2019-01-17T19:57:53.996Z,3.40
2019-01-17T20:00:22.615Z,3.40
2019-01-17T20:02:51.240Z,3.40
2019-01-17T20:05:22.827Z,3.30
2019-01-17T20:07:51.511Z,3.40
2019-01-17T20:10:22.695Z,3.40
2019-01-17T20:12:51.350Z,3.40
2019-01-17T20:15:21.280Z,3.30
2019-01-17T20:17:49.961Z,3.30
2019-01-17T20:20:18.852Z,3.30
2019-01-17T20:22:47.444Z,3.20
2019-01-17T20:25:16.034Z,3.20
2019-01-17T20:27:44.508Z,3.20
2019-01-17T20:30:21.214Z,3.20
2019-01-17T20:32:49.739Z,3.20
2019-01-17T20:35:18.221Z,3.20
2019-01-17T20:37:46.812Z,3.10
2019-01-17T20:40:20.562Z,3.10
2019-01-17T20:42:49.005Z,3.10
2019-01-17T20:45:17.581Z,3.00
2019-01-17T20:47:46.157Z,3.00
2019-01-17T20:50:20.230Z,3.00
2019-01-17T20:52:48.661Z,3.00
2019-01-17T20:55:17.077Z,3.10
2019-01-17T20:57:47.133Z,3.10
2019-01-17T21:00:24.709Z,3.10
2019-01-17T21:02:53.412Z,3.10
2019-01-17T21:05:22.093Z,3.10
2019-01-17T21:07:50.615Z,3.10
2019-01-17T21:10:19.573Z,3.20
2019-01-17T21:12:48.216Z,3.20
2019-01-17T21:15:16.771Z,3.20
2019-01-17T21:17:45.210Z,3.20
2019-01-17T21:20:14.886Z,3.20
2019-01-17T21:22:43.363Z,3.20
2019-01-17T21:25:14.433Z,3.20
2019-01-17T21:27:42.859Z,3.20
2019-01-17T21:30:17.023Z,3.20
2019-01-17T21:32:45.454Z,3.20
2019-01-17T21:35:15.859Z,3.10
2019-01-17T21:37:44.892Z,3.00
2019-01-17T21:40:16.050Z,3.00
2019-01-17T21:42:45.159Z,2.90
2019-01-17T21:45:15.989Z,2.80
2019-01-17T21:47:45.297Z,2.80
2019-01-17T21:50:28.850Z,2.80
2019-01-17T21:52:57.285Z,2.80
2019-01-17T21:55:25.836Z,2.90
2019-01-17T21:57:54.349Z,2.90
2019-01-17T22:00:27.997Z,2.90
2019-01-17T22:02:56.484Z,2.90
2019-01-17T22:05:25.291Z,2.90
2019-01-17T22:07:53.733Z,2.90
2019-01-17T22:10:22.292Z,3.00
2019-01-17T22:12:50.817Z,3.00
2019-01-17T22:15:26.221Z,3.00
2019-01-17T22:17:54.852Z,3.00
2019-01-17T22:20:23.431Z,3.00
2019-01-17T22:22:52.011Z,3.00
2019-01-17T22:25:21.181Z,3.10
2019-01-17T22:27:51.641Z,3.00
2019-01-17T22:30:25.743Z,3.10
2019-01-17T22:32:54.256Z,3.10
2019-01-17T22:35:22.871Z,3.00
2019-01-17T22:37:51.333Z,3.00
2019-01-17T22:40:19.962Z,2.90
2019-01-17T22:42:48.485Z,2.90
2019-01-17T22:45:19.438Z,2.80
2019-01-17T22:47:47.944Z,2.80
2019-01-17T22:50:18.683Z,2.80
2019-01-17T22:52:48.103Z,2.70
2019-01-17T22:55:17.259Z,2.70
2019-01-17T22:57:45.781Z,2.70
2019-01-17T23:00:42.680Z,2.70
2019-01-17T23:03:11.233Z,2.70
2019-01-17T23:05:39.689Z,2.70
2019-01-17T23:08:08.256Z,2.70
2019-01-17T23:10:36.721Z,2.70
2019-01-17T23:13:05.173Z,2.70
2019-01-17T23:15:33.645Z,2.70
2019-01-17T23:18:02.117Z,2.70
2019-01-17T23:20:30.603Z,2.60
2019-01-17T23:22:59.015Z,2.70
2019-01-17T23:25:27.468Z,2.70
2019-01-17T23:27:55.903Z,2.70
2019-01-17T23:30:24.491Z,2.70
2019-01-17T23:32:52.911Z,2.80
2019-01-17T23:35:21.369Z,2.80
2019-01-17T23:37:49.896Z,2.80
2019-01-17T23:40:18.316Z,2.80
2019-01-17T23:42:46.779Z,2.80
2019-01-17T23:45:15.247Z,2.80
2019-01-17T23:47:43.749Z,2.70
2019-01-17T23:50:12.925Z,2.60
2019-01-17T23:52:41.411Z,2.60
2019-01-17T23:55:10.109Z,2.60
2019-01-17T23:57:38.514Z,2.60
